createdAt,value
2022-12-05T00:00:33.303Z,92.24
2022-12-05T00:03:06.692Z,92.18
2022-12-05T00:05:35.967Z,92.09
2022-12-05T00:08:05.362Z,92.00
2022-12-05T00:10:39.310Z,91.70
2022-12-05T00:13:08.883Z,91.78
2022-12-05T00:15:40.160Z,91.89
2022-12-05T00:18:09.622Z,91.97
2022-12-05T00:20:38.873Z,91.74
2022-12-05T00:23:08.109Z,91.69
2022-12-05T00:25:38.038Z,91.67
2022-12-05T00:28:07.341Z,91.59
2022-12-05T00:30:36.788Z,91.70
2022-12-05T00:33:06.009Z,91.75
2022-12-05T00:35:35.637Z,91.60
2022-12-05T00:38:04.854Z,91.71
2022-12-05T00:40:36.642Z,91.89
2022-12-05T00:43:05.884Z,91.67
2022-12-05T00:45:35.225Z,91.88
2022-12-05T00:48:06.035Z,91.90
2022-12-05T00:50:35.262Z,92.04
2022-12-05T00:53:04.528Z,92.04
2022-12-05T00:55:35.005Z,91.99
2022-12-05T00:58:04.435Z,91.84
2022-12-05T01:00:33.923Z,91.99
2022-12-05T01:03:03.266Z,92.30
2022-12-05T01:05:35.177Z,92.23
2022-12-05T01:08:04.559Z,92.30
2022-12-05T01:10:34.286Z,92.09
2022-12-05T01:13:03.551Z,92.12
2022-12-05T01:15:32.867Z,92.15
2022-12-05T01:18:03.754Z,92.06
2022-12-05T01:20:32.960Z,92.02
2022-12-05T01:23:02.238Z,92.05
2022-12-05T01:25:31.474Z,92.00
2022-12-05T01:28:00.894Z,91.94
2022-12-05T01:30:30.330Z,92.04
2022-12-05T01:33:00.620Z,92.00
2022-12-05T01:35:34.722Z,92.12
2022-12-05T01:38:04.696Z,92.41
2022-12-05T01:40:37.128Z,92.21
2022-12-05T01:43:07.338Z,92.15
2022-12-05T01:45:39.797Z,92.20
2022-12-05T01:48:10.335Z,92.41
2022-12-05T01:50:39.854Z,92.32
2022-12-05T01:53:09.390Z,92.48
2022-12-05T01:55:39.516Z,92.29
2022-12-05T01:58:09.447Z,92.41
2022-12-05T02:00:40.723Z,92.36
2022-12-05T02:03:12.804Z,92.55
2022-12-05T02:05:42.701Z,92.51
2022-12-05T02:08:12.892Z,92.43
2022-12-05T02:10:45.369Z,92.46
2022-12-05T02:13:29.436Z,92.60
2022-12-05T02:16:17.322Z,92.52
2022-12-05T02:19:07.943Z,92.76
2022-12-05T02:21:40.329Z,92.81
2022-12-05T02:24:21.718Z,92.72
2022-12-05T02:27:21.481Z,92.72
2022-12-05T02:30:11.165Z,92.87
2022-12-05T02:33:00.127Z,92.86
2022-12-05T02:35:50.798Z,92.83
2022-12-05T02:38:40.748Z,92.86
2022-12-05T02:41:18.011Z,93.02
2022-12-05T02:43:56.541Z,93.01
2022-12-05T02:46:28.284Z,93.09
2022-12-05T02:49:00.975Z,93.13
2022-12-05T02:51:31.145Z,93.17
2022-12-05T02:54:02.837Z,93.08
2022-12-05T02:56:33.788Z,93.13
2022-12-05T02:59:03.269Z,93.29
2022-12-05T03:01:33.529Z,93.46
2022-12-05T03:04:05.216Z,93.72
2022-12-05T03:06:37.682Z,93.85
2022-12-05T03:09:18.723Z,93.94
2022-12-05T03:11:53.890Z,94.02
2022-12-05T03:14:26.567Z,94.26
2022-12-05T03:16:58.732Z,94.12
2022-12-05T03:19:37.378Z,94.40
2022-12-05T03:22:14.992Z,94.30
2022-12-05T03:24:44.225Z,94.32
2022-12-05T03:27:27.828Z,94.33
2022-12-05T03:30:08.714Z,94.62
2022-12-05T03:33:07.242Z,94.70
2022-12-05T03:35:55.633Z,94.49
2022-12-05T03:38:34.319Z,94.56
2022-12-05T03:41:26.442Z,94.55
2022-12-05T03:44:14.149Z,94.70
2022-12-05T03:46:46.053Z,94.67
2022-12-05T03:49:33.507Z,94.74
2022-12-05T03:52:01.700Z,94.74
2022-12-05T03:54:34.890Z,94.79
2022-12-05T03:57:04.930Z,95.06
2022-12-05T03:59:43.145Z,95.09
2022-12-05T04:02:15.153Z,95.08
2022-12-05T04:04:47.561Z,95.02
2022-12-05T04:07:18.611Z,95.14
2022-12-05T04:09:51.023Z,95.12
2022-12-05T04:12:25.971Z,95.04
2022-12-05T04:15:00.929Z,95.23
2022-12-05T04:18:00.451Z,95.28
2022-12-05T04:20:52.944Z,95.26
2022-12-05T04:23:22.466Z,95.34
2022-12-05T04:26:06.284Z,95.46
2022-12-05T04:28:44.642Z,95.44
2022-12-05T04:31:22.900Z,95.35
2022-12-05T04:34:07.696Z,95.36
2022-12-05T04:36:57.824Z,95.32
2022-12-05T04:39:36.443Z,95.40
2022-12-05T04:42:11.771Z,95.46
2022-12-05T04:44:47.141Z,95.40
2022-12-05T04:47:18.286Z,95.36
2022-12-05T04:49:52.163Z,95.45
2022-12-05T04:52:19.020Z,95.61
2022-12-05T04:54:54.571Z,95.61
2022-12-05T04:57:29.285Z,95.67
2022-12-05T04:59:58.962Z,95.64
2022-12-05T05:02:31.652Z,95.54
2022-12-05T05:05:00.692Z,95.48
2022-12-05T05:07:30.290Z,95.51
2022-12-05T05:09:59.790Z,95.44
2022-12-05T05:12:29.142Z,95.44
2022-12-05T05:14:58.406Z,95.42
2022-12-05T05:17:27.628Z,95.46
2022-12-05T05:19:58.781Z,95.46
2022-12-05T05:22:28.134Z,95.58
2022-12-05T05:24:57.575Z,95.62
2022-12-05T05:27:26.815Z,95.56
2022-12-05T05:29:56.629Z,95.62
2022-12-05T05:32:26.192Z,95.62
2022-12-05T05:34:55.464Z,95.65
2022-12-05T05:37:24.690Z,95.77
2022-12-05T05:39:54.057Z,95.73
2022-12-05T05:42:23.283Z,95.72
2022-12-05T05:44:52.570Z,95.78
2022-12-05T05:47:21.815Z,95.84
2022-12-05T05:49:51.079Z,95.95
2022-12-05T05:52:20.312Z,95.90
2022-12-05T05:54:49.698Z,95.92
2022-12-05T05:57:20.662Z,95.94
2022-12-05T05:59:50.066Z,96.03
2022-12-05T06:02:19.310Z,95.95
2022-12-05T06:04:48.507Z,96.03
2022-12-05T06:07:17.876Z,95.99
2022-12-05T06:09:47.092Z,96.00
2022-12-05T06:12:16.346Z,96.09
2022-12-05T06:14:45.646Z,96.16
2022-12-05T06:17:15.075Z,96.25
2022-12-05T06:19:44.479Z,96.24
2022-12-05T06:22:13.875Z,96.24
2022-12-05T06:24:43.138Z,96.28
2022-12-05T06:27:12.406Z,96.28
2022-12-05T06:29:41.802Z,96.32
2022-12-05T06:32:11.062Z,96.28
2022-12-05T06:34:40.357Z,96.21
2022-12-05T06:37:09.756Z,96.23
2022-12-05T06:39:39.055Z,96.22
2022-12-05T06:42:08.370Z,96.22
2022-12-05T06:44:37.653Z,96.21
2022-12-05T06:47:06.914Z,96.21
2022-12-05T06:49:38.273Z,96.22
2022-12-05T06:52:07.461Z,96.24
2022-12-05T06:54:36.921Z,96.31
2022-12-05T06:57:06.178Z,96.37
2022-12-05T06:59:35.448Z,96.35
2022-12-05T07:02:06.569Z,96.26
2022-12-05T07:04:36.301Z,96.29
2022-12-05T07:07:05.700Z,96.28
2022-12-05T07:09:48.338Z,96.26
2022-12-05T07:12:17.337Z,96.33
2022-12-05T07:14:49.324Z,96.35
2022-12-05T07:17:19.810Z,96.34
2022-12-05T07:19:50.082Z,96.34
2022-12-05T07:22:20.511Z,96.47
2022-12-05T07:24:52.540Z,96.50
2022-12-05T07:27:26.981Z,96.51
2022-12-05T07:29:52.888Z,96.50
2022-12-05T07:32:22.304Z,96.38
2022-12-05T07:34:55.313Z,96.48
2022-12-05T07:37:22.628Z,96.45
2022-12-05T07:39:56.094Z,96.49
2022-12-05T07:42:25.524Z,96.50
2022-12-05T07:44:54.725Z,96.51
2022-12-05T07:47:24.117Z,96.51
2022-12-05T07:49:53.354Z,96.53
2022-12-05T07:52:22.793Z,96.63
2022-12-05T07:54:52.024Z,96.68
2022-12-05T07:57:21.322Z,96.59
2022-12-05T07:59:50.548Z,96.55
2022-12-05T08:02:20.590Z,96.61
2022-12-05T08:04:49.835Z,96.58
2022-12-05T08:07:19.191Z,96.59
2022-12-05T08:09:48.426Z,96.52
2022-12-05T08:12:17.823Z,96.58
2022-12-05T08:14:47.029Z,96.59
2022-12-05T08:17:16.367Z,96.60
2022-12-05T08:19:45.644Z,96.63
2022-12-05T08:22:15.017Z,96.54
2022-12-05T08:24:44.297Z,96.53
2022-12-05T08:27:13.558Z,96.50
2022-12-05T08:29:42.829Z,96.50
2022-12-05T08:32:12.087Z,96.51
2022-12-05T08:34:41.281Z,96.48
2022-12-05T08:37:10.691Z,96.51
2022-12-05T08:39:39.966Z,96.44
2022-12-05T08:42:09.224Z,96.49
2022-12-05T08:44:38.443Z,96.36
2022-12-05T08:47:07.696Z,96.36
2022-12-05T08:49:36.905Z,96.40
2022-12-05T08:52:06.221Z,96.38
2022-12-05T08:54:35.529Z,96.35
2022-12-05T08:57:04.812Z,96.34
2022-12-05T08:59:34.037Z,96.39
2022-12-05T09:02:03.959Z,96.39
2022-12-05T09:04:33.398Z,96.37
2022-12-05T09:07:03.823Z,96.40
2022-12-05T09:09:33.614Z,96.46
2022-12-05T09:12:03.095Z,96.42
2022-12-05T09:14:33.125Z,96.45
2022-12-05T09:17:02.459Z,96.50
2022-12-05T09:19:32.159Z,96.52
2022-12-05T09:22:01.393Z,96.47
2022-12-05T09:24:30.613Z,96.46
2022-12-05T09:26:59.870Z,96.53
2022-12-05T09:29:30.760Z,96.50
2022-12-05T09:32:00.023Z,96.43
2022-12-05T09:34:29.422Z,96.44
2022-12-05T09:37:16.696Z,96.34
2022-12-05T09:39:31.290Z,96.42
2022-12-05T09:42:13.284Z,96.43
2022-12-05T09:44:57.948Z,96.44
2022-12-05T09:47:44.927Z,96.39
2022-12-05T09:50:32.390Z,96.39
2022-12-05T09:53:19.776Z,96.42
2022-12-05T09:55:52.321Z,96.34
2022-12-05T09:58:38.994Z,96.31
2022-12-05T10:01:34.107Z,96.18
2022-12-05T10:04:37.560Z,96.19
2022-12-05T10:07:29.654Z,96.13
2022-12-05T10:10:20.244Z,96.16
2022-12-05T10:12:51.303Z,96.19
2022-12-05T10:15:24.679Z,96.28
2022-12-05T10:17:59.878Z,96.31
2022-12-05T10:20:49.981Z,96.28
2022-12-05T10:26:02.893Z,96.18
2022-12-05T10:28:35.222Z,96.25
2022-12-05T10:31:07.692Z,96.31
2022-12-05T10:33:39.427Z,96.30
2022-12-05T10:36:16.142Z,96.19
2022-12-05T10:38:46.242Z,96.36
2022-12-05T10:41:16.289Z,96.38
2022-12-05T10:43:46.482Z,96.43
2022-12-05T10:46:18.301Z,96.32
2022-12-05T10:48:47.677Z,96.29
2022-12-05T10:51:19.652Z,96.26
2022-12-05T10:53:52.210Z,96.23
2022-12-05T10:56:37.474Z,96.17
2022-12-05T10:59:08.579Z,96.25
2022-12-05T11:01:38.744Z,96.18
2022-12-05T11:04:13.823Z,96.15
2022-12-05T11:06:45.692Z,96.15
2022-12-05T11:09:18.159Z,96.04
2022-12-05T11:11:50.561Z,95.96
2022-12-05T11:14:25.566Z,95.87
2022-12-05T11:16:57.274Z,95.82
2022-12-05T11:19:34.703Z,95.81
2022-12-05T11:22:04.817Z,95.75
2022-12-05T11:24:35.757Z,95.55
2022-12-05T11:27:21.132Z,95.55
2022-12-05T11:30:15.097Z,95.53
2022-12-05T11:32:44.336Z,95.53
2022-12-05T11:35:16.753Z,95.58
2022-12-05T11:38:05.495Z,95.63
2022-12-05T11:40:38.858Z,95.62
2022-12-05T11:43:29.579Z,95.58
2022-12-05T11:46:10.486Z,95.62
2022-12-05T11:49:05.510Z,95.47
2022-12-05T11:51:57.258Z,95.51
2022-12-05T11:55:06.591Z,95.40
2022-12-05T11:57:40.987Z,95.41
2022-12-05T12:00:25.582Z,95.42
2022-12-05T12:03:22.353Z,95.39
2022-12-05T12:06:06.870Z,95.49
2022-12-05T12:08:42.258Z,95.52
2022-12-05T12:11:20.496Z,95.47
2022-12-05T12:14:13.907Z,95.37
2022-12-05T12:17:04.627Z,95.40
2022-12-05T12:19:52.170Z,95.58
2022-12-05T12:22:41.265Z,95.52
2022-12-05T12:25:40.352Z,95.60
2022-12-05T12:28:24.810Z,95.68
2022-12-05T12:31:09.014Z,95.66
2022-12-05T12:33:44.590Z,95.76
2022-12-05T12:36:46.448Z,95.77
2022-12-05T12:39:36.563Z,95.65
2022-12-05T12:42:08.958Z,95.61
2022-12-05T12:45:08.864Z,95.55
2022-12-05T12:47:56.549Z,95.71
2022-12-05T12:50:31.295Z,95.82
2022-12-05T12:53:06.505Z,95.79
2022-12-05T12:55:42.029Z,95.70
2022-12-05T12:58:47.997Z,95.71
2022-12-05T13:01:36.822Z,95.70
2022-12-05T13:04:18.854Z,95.80
2022-12-05T13:07:06.410Z,95.79
2022-12-05T13:09:39.064Z,95.80
2022-12-05T13:12:13.304Z,95.38
2022-12-05T13:14:51.366Z,95.48
2022-12-05T13:17:21.408Z,95.46
2022-12-05T13:19:52.681Z,95.28
2022-12-05T13:22:23.844Z,95.47
2022-12-05T13:24:54.307Z,95.66
2022-12-05T13:27:27.543Z,95.71
2022-12-05T13:30:02.319Z,95.48
2022-12-05T13:32:34.434Z,95.40
2022-12-05T13:35:10.066Z,95.41
2022-12-05T13:38:04.556Z,95.49
2022-12-05T13:40:56.723Z,95.56
2022-12-05T13:43:28.208Z,95.66
2022-12-05T13:46:06.531Z,95.68
2022-12-05T13:48:43.638Z,95.89
2022-12-05T13:51:24.800Z,95.83
2022-12-05T13:54:14.840Z,95.90
2022-12-05T13:56:52.468Z,96.08
2022-12-05T13:59:45.096Z,96.15
2022-12-05T14:02:33.694Z,96.14
2022-12-05T14:05:04.236Z,96.08
2022-12-05T14:07:39.368Z,96.19
2022-12-05T14:10:10.653Z,96.43
2022-12-05T14:12:54.750Z,96.52
2022-12-05T14:15:30.008Z,96.49
2022-12-05T14:18:02.404Z,96.52
2022-12-05T14:20:35.670Z,96.66
2022-12-05T14:23:22.489Z,96.59
2022-12-05T14:26:08.791Z,96.61
2022-12-05T14:28:55.470Z,96.68
2022-12-05T14:31:44.902Z,96.74
2022-12-05T14:34:25.374Z,96.77
2022-12-05T14:37:06.433Z,96.88
2022-12-05T14:39:51.683Z,96.86
2022-12-05T14:42:23.946Z,96.86
2022-12-05T14:44:56.099Z,96.82
2022-12-05T14:47:28.605Z,96.81
2022-12-05T14:50:02.769Z,96.83
2022-12-05T14:52:34.448Z,96.81
2022-12-05T14:55:12.695Z,96.79
2022-12-05T14:57:49.467Z,96.88
2022-12-05T15:00:23.774Z,96.92
2022-12-05T15:02:55.602Z,96.92
2022-12-05T15:05:31.145Z,96.93
2022-12-05T15:08:01.556Z,97.06
2022-12-05T15:10:39.988Z,97.13
2022-12-05T15:13:20.534Z,97.14
2022-12-05T15:16:09.134Z,97.19
2022-12-05T15:18:50.488Z,97.18
2022-12-05T15:21:31.665Z,97.19
2022-12-05T15:24:02.705Z,97.30
2022-12-05T15:26:47.978Z,97.34
2022-12-05T15:29:29.109Z,97.41
2022-12-05T15:32:02.283Z,97.33
2022-12-05T15:35:09.237Z,97.13
2022-12-05T15:37:55.887Z,97.22
2022-12-05T15:40:26.259Z,97.32
2022-12-05T15:42:57.594Z,97.20
2022-12-05T15:45:28.850Z,97.12
2022-12-05T15:48:10.220Z,97.17
2022-12-05T15:50:50.501Z,97.14
2022-12-05T15:53:22.894Z,97.11
2022-12-05T15:55:57.140Z,97.19
2022-12-05T15:58:28.424Z,97.19
2022-12-05T16:01:03.611Z,97.22
2022-12-05T16:03:39.472Z,97.16
2022-12-05T16:06:17.259Z,97.19
2022-12-05T16:08:51.240Z,97.16
2022-12-05T16:11:20.753Z,97.21
2022-12-05T16:13:58.006Z,97.24
2022-12-05T16:16:30.606Z,97.22
2022-12-05T16:19:00.165Z,97.23
2022-12-05T16:21:39.298Z,97.22
2022-12-05T16:24:22.907Z,97.25
2022-12-05T16:26:58.132Z,97.28
2022-12-05T16:29:29.494Z,97.22
2022-12-05T16:32:00.448Z,97.23
2022-12-05T16:34:30.634Z,97.24
2022-12-05T16:37:00.236Z,97.26
2022-12-05T16:39:30.160Z,97.25
2022-12-05T16:41:59.474Z,97.25
2022-12-05T16:44:34.896Z,97.27
2022-12-05T16:47:04.180Z,97.39
2022-12-05T16:49:35.169Z,97.44
2022-12-05T16:52:14.321Z,97.57
2022-12-05T16:54:46.178Z,97.59
2022-12-05T16:57:16.987Z,97.61
2022-12-05T16:59:47.972Z,97.60
2022-12-05T17:02:19.207Z,97.70
2022-12-05T17:04:48.600Z,97.68
2022-12-05T17:07:17.914Z,97.66
2022-12-05T17:09:47.159Z,97.63
2022-12-05T17:12:19.556Z,97.62
2022-12-05T17:14:48.792Z,97.56
2022-12-05T17:17:19.024Z,97.46
2022-12-05T17:19:48.361Z,97.50
2022-12-05T17:22:18.181Z,97.47
2022-12-05T17:24:47.519Z,97.44
2022-12-05T17:27:17.798Z,97.30
2022-12-05T17:29:47.229Z,97.30
2022-12-05T17:32:16.436Z,97.27
2022-12-05T17:34:45.858Z,97.36
2022-12-05T17:37:15.442Z,97.39
2022-12-05T17:39:44.681Z,97.38
2022-12-05T17:42:13.888Z,97.45
2022-12-05T17:44:43.213Z,97.35
2022-12-05T17:47:12.463Z,97.31
2022-12-05T17:49:41.782Z,97.40
2022-12-05T17:52:21.417Z,97.34
2022-12-05T17:54:42.944Z,97.33
2022-12-05T17:57:12.295Z,97.34
2022-12-05T17:59:41.495Z,97.35
2022-12-05T18:02:12.153Z,97.28
2022-12-05T18:04:41.375Z,97.18
2022-12-05T18:07:10.790Z,97.01
2022-12-05T18:09:40.024Z,97.07
2022-12-05T18:12:09.373Z,96.97
2022-12-05T18:14:39.479Z,97.03
2022-12-05T18:17:08.725Z,97.02
2022-12-05T18:19:38.030Z,96.86
2022-12-05T18:22:07.274Z,96.83
2022-12-05T18:24:36.588Z,96.96
2022-12-05T18:27:05.823Z,96.92
2022-12-05T18:29:35.218Z,96.87
2022-12-05T18:32:04.562Z,96.82
2022-12-05T18:34:33.876Z,96.78
2022-12-05T18:37:03.106Z,96.70
2022-12-05T18:39:32.428Z,96.65
2022-12-05T18:42:01.690Z,96.71
2022-12-05T18:44:31.792Z,96.53
2022-12-05T18:47:01.002Z,96.43
2022-12-05T18:49:30.339Z,96.65
2022-12-05T18:51:59.680Z,96.53
2022-12-05T18:54:29.041Z,96.47
2022-12-05T18:56:58.273Z,96.53
2022-12-05T18:59:28.729Z,96.54
2022-12-05T19:01:59.797Z,96.33
2022-12-05T19:04:29.957Z,96.41
2022-12-05T19:07:01.914Z,96.39
2022-12-05T19:09:32.437Z,96.26
2022-12-05T19:12:01.884Z,96.16
2022-12-05T19:14:33.182Z,96.26
2022-12-05T19:17:03.236Z,96.09
2022-12-05T19:19:32.667Z,96.02
2022-12-05T19:22:02.297Z,96.02
2022-12-05T19:24:31.684Z,96.05
2022-12-05T19:27:01.032Z,95.75
2022-12-05T19:29:30.254Z,95.89
2022-12-05T19:31:59.642Z,95.90
2022-12-05T19:34:32.072Z,95.74
2022-12-05T19:37:01.363Z,95.64
2022-12-05T19:39:30.730Z,95.72
2022-12-05T19:42:00.380Z,95.77
2022-12-05T19:44:29.695Z,95.87
2022-12-05T19:46:59.072Z,95.85
2022-12-05T19:49:28.333Z,95.87
2022-12-05T19:51:57.815Z,95.90
2022-12-05T19:54:27.166Z,95.82
2022-12-05T19:56:58.411Z,95.84
2022-12-05T19:59:27.819Z,95.94
2022-12-05T20:01:57.338Z,95.84
2022-12-05T20:04:26.683Z,95.91
2022-12-05T20:06:55.946Z,95.87
2022-12-05T20:09:25.208Z,95.88
2022-12-05T20:11:56.014Z,95.80
2022-12-05T20:14:26.569Z,95.78
2022-12-05T20:16:56.498Z,95.76
2022-12-05T20:19:25.882Z,95.79
2022-12-05T20:21:55.593Z,95.80
2022-12-05T20:24:25.275Z,95.85
2022-12-05T20:26:54.921Z,95.81
2022-12-05T20:29:27.312Z,95.89
2022-12-05T20:31:58.625Z,95.84
2022-12-05T20:34:30.919Z,95.82
2022-12-05T20:37:00.366Z,95.83
2022-12-05T20:39:29.739Z,95.79
2022-12-05T20:41:59.110Z,95.79
2022-12-05T20:44:28.337Z,95.67
2022-12-05T20:46:57.924Z,95.80
2022-12-05T20:49:27.200Z,95.78
2022-12-05T20:51:56.783Z,95.89
2022-12-05T20:54:26.081Z,95.93
2022-12-05T20:56:55.419Z,95.91
2022-12-05T20:59:24.782Z,95.85
2022-12-05T21:01:54.610Z,95.84
2022-12-05T21:04:24.251Z,95.82
2022-12-05T21:06:53.855Z,95.80
2022-12-05T21:09:30.363Z,95.91
2022-12-05T21:11:59.834Z,95.87
2022-12-05T21:14:29.836Z,95.90
2022-12-05T21:16:59.152Z,95.93
2022-12-05T21:19:29.176Z,95.97
2022-12-05T21:21:58.691Z,95.97
2022-12-05T21:24:28.735Z,95.89
2022-12-05T21:26:58.038Z,95.94
2022-12-05T21:29:27.334Z,95.89
2022-12-05T21:31:56.603Z,95.91
2022-12-05T21:34:25.933Z,95.89
2022-12-05T21:37:08.549Z,95.86
2022-12-05T21:39:44.252Z,95.80
2022-12-05T21:42:13.551Z,95.94
2022-12-05T21:44:42.864Z,96.02
2022-12-05T21:47:12.117Z,96.03
2022-12-05T21:49:41.423Z,95.98
2022-12-05T21:52:10.665Z,96.04
2022-12-05T21:54:39.908Z,96.05
2022-12-05T21:57:09.234Z,96.07
2022-12-05T21:59:38.481Z,96.15
2022-12-05T22:02:08.271Z,96.26
2022-12-05T22:04:37.588Z,96.26
2022-12-05T22:07:06.880Z,96.19
2022-12-05T22:09:36.187Z,96.28
2022-12-05T22:12:06.016Z,96.30
2022-12-05T22:14:35.272Z,96.35
2022-12-05T22:17:04.574Z,96.46
2022-12-05T22:19:33.958Z,96.49
2022-12-05T22:22:03.191Z,96.63
2022-12-05T22:24:32.812Z,96.67
2022-12-05T22:27:02.083Z,96.76
2022-12-05T22:29:31.372Z,96.84
2022-12-05T22:32:00.646Z,96.96
2022-12-05T22:34:30.351Z,97.00
2022-12-05T22:37:00.719Z,97.01
2022-12-05T22:39:30.645Z,97.02
2022-12-05T22:41:59.984Z,97.05
2022-12-05T22:44:29.757Z,97.09
2022-12-05T22:46:59.129Z,97.08
2022-12-05T22:49:28.376Z,97.13
2022-12-05T22:51:59.211Z,97.10
2022-12-05T22:54:30.358Z,97.05
2022-12-05T22:56:59.510Z,97.12
2022-12-05T22:59:28.838Z,97.12
2022-12-05T23:01:58.184Z,97.04
2022-12-05T23:04:27.951Z,97.03
2022-12-05T23:06:57.477Z,97.03
2022-12-05T23:09:27.301Z,97.00
2022-12-05T23:11:56.641Z,96.99
2022-12-05T23:14:26.176Z,96.97
2022-12-05T23:16:55.596Z,97.00
2022-12-05T23:19:26.527Z,96.95
2022-12-05T23:21:55.936Z,96.81
2022-12-05T23:24:25.553Z,96.69
2022-12-05T23:26:54.966Z,96.66
2022-12-05T23:29:24.571Z,96.58
2022-12-05T23:31:54.086Z,96.69
2022-12-05T23:34:23.618Z,96.61
2022-12-05T23:36:53.113Z,96.56
2022-12-05T23:39:22.605Z,96.51
2022-12-05T23:41:52.248Z,96.39
2022-12-05T23:44:21.805Z,96.42
2022-12-05T23:46:51.398Z,96.41
2022-12-05T23:49:21.031Z,96.37
2022-12-05T23:51:50.924Z,96.44
2022-12-05T23:54:20.461Z,96.26
2022-12-05T23:56:50.055Z,96.12
2022-12-05T23:59:19.521Z,96.19
